Time;durP1;ratioP1;P1;durP2;ratioP2;P2;SDS_P1;SDS_P2;PMS_P1;PMS_P2;Temp;Humidity;BMP_temperature;BMP_pressure;BME280_temperature;BME280_humidity;BME280_pressure;Samples;Min_cycle;Max_cycle;Signal;HPM_P1;HPM_P2
2022/09/03 00:00:02;;;;;;;5.90;3.30;;;;;;;;;;110484;1247;33576;-34
2022/09/03 00:02:58;;;;;;;6.00;3.30;;;;;;;;;;110454;1256;34142;-34
2022/09/03 00:05:35;;;;;;;6.30;3.10;;;;;;;;;;110454;1257;34187;-34
2022/09/03 00:08:10;;;;;;;5.80;3.30;;;;;;;;;;110450;1257;34336;-34
2022/09/03 00:10:46;;;;;;;6.50;3.70;;;;;;;;;;110466;1257;33227;-34
2022/09/03 00:13:22;;;;;;;6.10;3.50;;;;;;;;;;110456;1248;33183;-34
2022/09/03 00:15:55;;;;;;;6.70;3.50;;;;;;;;;;110461;1253;34216;-34
2022/09/03 00:18:30;;;;;;;6.00;3.60;;;;;;;;;;110491;1248;35189;-34
2022/09/03 00:21:07;;;;;;;6.80;3.90;;;;;;;;;;110467;1257;33399;-34
2022/09/03 00:23:41;;;;;;;6.70;3.80;;;;;;;;;;110457;1257;35049;-34
2022/09/03 00:26:24;;;;;;;6.70;3.70;;;;;;;;;;110463;1248;34803;-34
2022/09/03 00:28:59;;;;;;;6.30;3.90;;;;;;;;;;110457;1255;35616;-34
2022/09/03 00:31:36;;;;;;;7.10;4.10;;;;;;;;;;110428;1250;34038;-34
2022/09/03 00:34:11;;;;;;;7.00;4.20;;;;;;;;;;110459;1257;33208;-34
2022/09/03 00:36:44;;;;;;;6.70;3.90;;;;;;;;;;110462;1257;35002;-34
2022/09/03 00:39:17;;;;;;;6.80;3.90;;;;;;;;;;110473;1251;34911;-34
2022/09/03 00:42:05;;;;;;;6.30;3.70;;;;;;;;;;110505;1251;35169;-34
2022/09/03 00:44:54;;;;;;;7.20;4.40;;;;;;;;;;110492;1248;34381;-34
2022/09/03 00:47:29;;;;;;;7.40;4.20;;;;;;;;;;110452;1257;33769;-34
2022/09/03 00:50:14;;;;;;;8.00;4.70;;;;;;;;;;110477;1256;35518;-34
2022/09/03 00:52:53;;;;;;;8.00;4.60;;;;;;;;;;110452;1251;35650;-34
2022/09/03 00:55:36;;;;;;;6.70;4.30;;;;;;;;;;110478;1257;34944;-34
2022/09/03 00:58:20;;;;;;;7.20;4.70;;;;;;;;;;110467;1253;35018;-34
2022/09/03 01:00:52;;;;;;;7.10;4.50;;;;;;;;;;110458;1248;34019;-34
2022/09/03 01:03:29;;;;;;;7.30;4.70;;;;;;;;;;110486;1256;35126;-34
2022/09/03 01:06:11;;;;;;;7.90;4.70;;;;;;;;;;110463;1252;33207;-34
2022/09/03 01:08:53;;;;;;;8.50;5.10;;;;;;;;;;110456;1248;34006;-34
2022/09/03 01:11:30;;;;;;;7.50;4.70;;;;;;;;;;110451;1251;34951;-34
2022/09/03 01:14:07;;;;;;;7.60;4.80;;;;;;;;;;110460;1257;35342;-34
2022/09/03 01:16:44;;;;;;;8.20;4.90;;;;;;;;;;110414;1257;35733;-34
2022/09/03 01:19:34;;;;;;;8.30;4.90;;;;;;;;;;110455;1251;35128;-34
2022/09/03 01:22:24;;;;;;;8.80;5.30;;;;;;;;;;110466;1247;35699;-34
2022/09/03 01:25:12;;;;;;;8.10;5.00;;;;;;;;;;110478;1254;34265;-34
2022/09/03 01:27:52;;;;;;;9.10;5.50;;;;;;;;;;110448;1256;33230;-34
2022/09/03 01:30:23;;;;;;;8.80;5.30;;;;;;;;;;110458;1257;35037;-34
2022/09/03 01:33:01;;;;;;;10.50;5.30;;;;;;;;;;110451;1247;33605;-34
2022/09/03 01:35:37;;;;;;;9.50;5.90;;;;;;;;;;110474;1248;35151;-34
2022/09/03 01:38:19;;;;;;;9.60;5.30;;;;;;;;;;110459;1248;33249;-34
2022/09/03 01:40:57;;;;;;;9.20;5.60;;;;;;;;;;110423;1257;34765;-34
2022/09/03 01:43:38;;;;;;;9.50;5.60;;;;;;;;;;110478;1254;32672;-34
2022/09/03 01:46:14;;;;;;;9.40;5.70;;;;;;;;;;110437;1251;33374;-34
2022/09/03 01:48:51;;;;;;;10.00;6.00;;;;;;;;;;110453;1253;34529;-34
2022/09/03 01:51:24;;;;;;;9.30;5.80;;;;;;;;;;110435;1255;35327;-34
2022/09/03 01:54:02;;;;;;;;;;;;;;;;;;110492;1257;33648;-34
2022/09/03 01:56:43;;;;;;;8.80;5.30;;;;;;;;;;110468;1257;34480;-34
2022/09/03 01:59:20;;;;;;;9.40;5.40;;;;;;;;;;110457;1248;33214;-34
2022/09/03 02:01:57;;;;;;;9.00;5.20;;;;;;;;;;110449;1257;35092;-34
2022/09/03 02:04:30;;;;;;;9.00;5.70;;;;;;;;;;110479;1251;34944;-34
2022/09/03 02:07:02;;;;;;;10.00;5.70;;;;;;;;;;110452;1257;34858;-34
2022/09/03 02:09:33;;;;;;;9.10;5.80;;;;;;;;;;110463;1257;34976;-34
2022/09/03 02:12:08;;;;;;;9.00;5.40;;;;;;;;;;110459;1251;34138;-34
2022/09/03 02:14:39;;;;;;;9.90;5.60;;;;;;;;;;110452;1247;35267;-34
2022/09/03 02:17:10;;;;;;;8.60;5.00;;;;;;;;;;110385;1251;35706;-34
2022/09/03 02:19:42;;;;;;;9.00;5.40;;;;;;;;;;110474;1257;33213;-34
2022/09/03 02:22:13;;;;;;;8.70;5.20;;;;;;;;;;110448;1257;35081;-34
2022/09/03 02:24:44;;;;;;;8.90;5.20;;;;;;;;;;110452;1256;35110;-34
2022/09/03 02:27:16;;;;;;;9.30;5.10;;;;;;;;;;110452;1248;34823;-34
2022/09/03 02:29:47;;;;;;;8.10;5.10;;;;;;;;;;110436;1256;35014;-34
2022/09/03 02:32:18;;;;;;;9.00;5.40;;;;;;;;;;110454;1248;33948;-35
2022/09/03 02:34:49;;;;;;;9.40;5.20;;;;;;;;;;110429;1248;34985;-34
2022/09/03 02:37:20;;;;;;;7.90;4.60;;;;;;;;;;110482;1257;33341;-34
2022/09/03 02:39:52;;;;;;;10.80;5.50;;;;;;;;;;110474;1247;35009;-34
2022/09/03 02:42:23;;;;;;;9.60;5.00;;;;;;;;;;110468;1257;35459;-34
2022/09/03 02:44:59;;;;;;;9.00;5.30;;;;;;;;;;110440;1255;34157;-34
2022/09/03 02:47:33;;;;;;;8.20;4.80;;;;;;;;;;110448;1248;35499;-34
2022/09/03 02:50:05;;;;;;;9.50;4.80;;;;;;;;;;110467;1247;34945;-34
2022/09/03 02:52:36;;;;;;;8.90;5.00;;;;;;;;;;110456;1256;34256;-34
2022/09/03 02:55:09;;;;;;;9.40;5.30;;;;;;;;;;110459;1255;35046;-34
2022/09/03 02:57:40;;;;;;;7.70;4.70;;;;;;;;;;110493;1256;35004;-34
2022/09/03 03:00:15;;;;;;;;;;;;;;;;;;110467;1255;34710;-34
2022/09/03 03:02:47;;;;;;;8.10;5.00;;;;;;;;;;110479;1247;33970;-34
2022/09/03 03:05:23;;;;;;;8.60;5.10;;;;;;;;;;110242;1251;33436;-34
2022/09/03 03:07:57;;;;;;;8.90;4.70;;;;;;;;;;110250;1249;34842;-34
2022/09/03 03:10:28;;;;;;;7.40;4.60;;;;;;;;;;110278;1257;34317;-34
2022/09/03 03:13:00;;;;;;;7.90;4.60;;;;;;;;;;110252;1257;35614;-34
2022/09/03 03:15:35;;;;;;;7.50;4.70;;;;;;;;;;110252;1257;34029;-34
2022/09/03 03:18:10;;;;;;;7.20;4.20;;;;;;;;;;110244;1250;33695;-34
2022/09/03 03:20:44;;;;;;;8.40;4.80;;;;;;;;;;110243;1250;35122;-34
2022/09/03 03:23:15;;;;;;;8.60;4.70;;;;;;;;;;110242;1257;34008;-34
2022/09/03 03:25:46;;;;;;;7.40;4.40;;;;;;;;;;110228;1257;34933;-33
2022/09/03 03:28:18;;;;;;;8.10;5.00;;;;;;;;;;110266;1251;33689;-34
2022/09/03 03:30:49;;;;;;;8.00;4.20;;;;;;;;;;110244;1249;34300;-34
2022/09/03 03:33:21;;;;;;;7.40;4.20;;;;;;;;;;110240;1249;33851;-34
2022/09/03 03:35:52;;;;;;;7.60;4.20;;;;;;;;;;110247;1257;33216;-35
2022/09/03 03:38:23;;;;;;;7.50;4.70;;;;;;;;;;110266;1257;33647;-34
2022/09/03 03:40:54;;;;;;;9.00;4.40;;;;;;;;;;110248;1257;35526;-34
2022/09/03 03:43:25;;;;;;;7.80;4.30;;;;;;;;;;110222;1257;33878;-34
2022/09/03 03:46:00;;;;;;;8.70;5.10;;;;;;;;;;110255;1251;33842;-34
2022/09/03 03:48:30;;;;;;;7.50;4.20;;;;;;;;;;110253;1257;34176;-34
2022/09/03 03:51:06;;;;;;;8.20;4.60;;;;;;;;;;110236;1257;35181;-34
2022/09/03 03:53:38;;;;;;;6.80;4.10;;;;;;;;;;110258;1251;35096;-34
2022/09/03 03:56:11;;;;;;;9.20;4.60;;;;;;;;;;110263;1257;33892;-34
2022/09/03 03:58:42;;;;;;;8.60;4.50;;;;;;;;;;110249;1251;34963;-34
2022/09/03 04:01:16;;;;;;;8.50;4.50;;;;;;;;;;110256;1257;33581;-34
2022/09/03 04:03:47;;;;;;;8.50;4.50;;;;;;;;;;110309;1256;33175;-34
2022/09/03 04:06:19;;;;;;;7.60;4.70;;;;;;;;;;110470;1248;34897;-34
2022/09/03 04:08:50;;;;;;;7.30;4.50;;;;;;;;;;110438;1256;34912;-34
2022/09/03 04:11:22;;;;;;;7.90;4.30;;;;;;;;;;110505;1247;35132;-34
2022/09/03 04:13:55;;;;;;;9.20;4.90;;;;;;;;;;110468;1248;33631;-34
2022/09/03 04:16:26;;;;;;;8.10;4.40;;;;;;;;;;110469;1256;32525;-34
2022/09/03 04:18:58;;;;;;;7.90;4.50;;;;;;;;;;110473;1247;34120;-34
2022/09/03 04:21:30;;;;;;;8.30;4.20;;;;;;;;;;110478;1251;33823;-34
2022/09/03 04:24:00;;;;;;;8.20;4.70;;;;;;;;;;110472;1251;33157;-34
2022/09/03 04:26:32;;;;;;;7.80;4.50;;;;;;;;;;110498;1256;34361;-34
2022/09/03 04:29:07;;;;;;;8.20;4.60;;;;;;;;;;110446;1255;33496;-34
2022/09/03 04:32:51;;;;;;;8.70;4.30;;;;;;;;;;110511;1248;35588;-34
2022/09/03 04:34:30;;;;;;;9.80;4.70;;;;;;;;;;110436;1256;34873;-34
2022/09/03 04:37:00;;;;;;;7.50;4.40;;;;;;;;;;110437;1251;33188;-34
2022/09/03 04:39:31;;;;;;;9.20;4.60;;;;;;;;;;110491;1254;35296;-34
2022/09/03 04:42:02;;;;;;;9.20;4.40;;;;;;;;;;110461;1256;33842;-34
2022/09/03 04:44:36;;;;;;;8.10;4.60;;;;;;;;;;110447;1247;35384;-34
2022/09/03 04:47:07;;;;;;;8.70;4.70;;;;;;;;;;110485;1256;34123;-34
2022/09/03 04:49:39;;;;;;;9.70;4.60;;;;;;;;;;110459;1253;34200;-34
2022/09/03 04:52:10;;;;;;;8.50;4.60;;;;;;;;;;110438;1256;34812;-34
2022/09/03 04:54:41;;;;;;;9.40;5.10;;;;;;;;;;110466;1247;33926;-34
2022/09/03 04:57:12;;;;;;;9.40;5.30;;;;;;;;;;110460;1247;34200;-34
2022/09/03 04:59:43;;;;;;;8.50;4.60;;;;;;;;;;110512;1248;35333;-34
2022/09/03 05:02:14;;;;;;;8.70;4.90;;;;;;;;;;110437;1256;34984;-34
2022/09/03 05:04:46;;;;;;;10.20;4.50;;;;;;;;;;110486;1255;34174;-34
2022/09/03 05:07:16;;;;;;;7.70;4.60;;;;;;;;;;110502;1255;34336;-34
2022/09/03 05:09:49;;;;;;;8.80;4.20;;;;;;;;;;110458;1251;34261;-34
2022/09/03 05:12:21;;;;;;;9.00;4.50;;;;;;;;;;110068;1248;505877;-34
2022/09/03 05:14:54;;;;;;;10.30;4.80;;;;;;;;;;110473;1256;34361;-34
2022/09/03 05:17:25;;;;;;;7.50;4.40;;;;;;;;;;110467;1248;35324;-34
2022/09/03 05:19:57;;;;;;;9.30;4.80;;;;;;;;;;110506;1256;35698;-34
2022/09/03 05:22:28;;;;;;;9.30;4.30;;;;;;;;;;110451;1247;33904;-34
2022/09/03 05:24:58;;;;;;;9.00;4.70;;;;;;;;;;110480;1251;34970;-34
2022/09/03 05:27:30;;;;;;;8.60;4.60;;;;;;;;;;110459;1251;34220;-34
2022/09/03 05:30:01;;;;;;;8.50;4.50;;;;;;;;;;110458;1256;33169;-34
2022/09/03 05:32:33;;;;;;;8.70;4.20;;;;;;;;;;110451;1255;34970;-34
2022/09/03 05:35:09;;;;;;;10.30;5.00;;;;;;;;;;110463;1247;34932;-34
2022/09/03 05:37:40;;;;;;;9.60;5.00;;;;;;;;;;110504;1256;34362;-34
2022/09/03 05:40:13;;;;;;;10.70;5.20;;;;;;;;;;110469;1256;32042;-34
2022/09/03 05:42:43;;;;;;;12.80;5.60;;;;;;;;;;110492;1255;34977;-34
2022/09/03 05:45:14;;;;;;;13.60;5.90;;;;;;;;;;110415;1250;33941;-34
2022/09/03 05:47:45;;;;;;;13.70;5.90;;;;;;;;;;110446;1251;34513;-34
2022/09/03 05:50:16;;;;;;;10.30;5.10;;;;;;;;;;110459;1248;33634;-34
2022/09/03 05:52:46;;;;;;;10.80;5.70;;;;;;;;;;110445;1248;34867;-34
2022/09/03 05:55:18;;;;;;;10.50;5.20;;;;;;;;;;110492;1255;35605;-34
2022/09/03 05:57:52;;;;;;;10.90;5.80;;;;;;;;;;110485;1256;34833;-34
2022/09/03 06:00:23;;;;;;;11.00;5.50;;;;;;;;;;110531;1247;35766;-34
2022/09/03 06:02:54;;;;;;;11.70;5.50;;;;;;;;;;110499;1250;34851;-34
2022/09/03 06:05:25;;;;;;;10.50;5.50;;;;;;;;;;110511;1254;35093;-34
2022/09/03 06:07:55;;;;;;;11.30;5.40;;;;;;;;;;110459;1255;33580;-34
2022/09/03 06:10:29;;;;;;;10.40;5.30;;;;;;;;;;110475;1257;34976;-34
2022/09/03 06:13:02;;;;;;;11.10;5.90;;;;;;;;;;110508;1256;34026;-34
2022/09/03 06:15:33;;;;;;;9.90;5.70;;;;;;;;;;110544;1256;34944;-34
2022/09/03 06:18:05;;;;;;;10.90;5.50;;;;;;;;;;110491;1255;32179;-34
2022/09/03 06:20:35;;;;;;;10.90;5.50;;;;;;;;;;110478;1256;33384;-34
2022/09/03 06:23:06;;;;;;;11.00;5.80;;;;;;;;;;110440;1256;35158;-34
2022/09/03 06:25:36;;;;;;;11.30;5.80;;;;;;;;;;110487;1255;33887;-34
2022/09/03 06:28:09;;;;;;;9.90;5.50;;;;;;;;;;110487;1250;33304;-34
2022/09/03 06:30:40;;;;;;;10.40;5.00;;;;;;;;;;110485;1250;34265;-34
2022/09/03 06:33:11;;;;;;;11.00;6.00;;;;;;;;;;110439;1256;34336;-34
2022/09/03 06:35:42;;;;;;;11.00;5.80;;;;;;;;;;110463;1248;35064;-34
2022/09/03 06:38:14;;;;;;;11.40;5.50;;;;;;;;;;110468;1255;35063;-34
2022/09/03 06:40:53;;;;;;;12.20;6.10;;;;;;;;;;110455;1247;33813;-34
2022/09/03 06:43:25;;;;;;;13.40;6.60;;;;;;;;;;110486;1247;33521;-34
2022/09/03 06:45:58;;;;;;;10.70;6.30;;;;;;;;;;110456;1256;35507;-34
2022/09/03 06:48:30;;;;;;;13.90;6.00;;;;;;;;;;110453;1248;33348;-34
2022/09/03 06:51:02;;;;;;;12.70;6.20;;;;;;;;;;110460;1248;34854;-34
2022/09/03 06:53:34;;;;;;;13.80;6.50;;;;;;;;;;110449;1248;35826;-34
2022/09/03 06:56:07;;;;;;;14.30;6.80;;;;;;;;;;110432;1255;33224;-34
2022/09/03 06:58:42;;;;;;;12.30;6.30;;;;;;;;;;110437;1256;35228;-34
2022/09/03 07:01:15;;;;;;;13.40;6.40;;;;;;;;;;110454;1247;34723;-34
2022/09/03 07:03:48;;;;;;;13.40;6.50;;;;;;;;;;110446;1256;34100;-34
2022/09/03 07:06:20;;;;;;;10.00;5.70;;;;;;;;;;110463;1248;35072;-34
2022/09/03 07:08:51;;;;;;;12.60;6.30;;;;;;;;;;110435;1250;34992;-34
2022/09/03 07:11:24;;;;;;;14.10;7.30;;;;;;;;;;110480;1256;34616;-34
2022/09/03 07:13:56;;;;;;;13.70;6.40;;;;;;;;;;110458;1256;35034;-34
2022/09/03 07:16:29;;;;;;;13.30;7.00;;;;;;;;;;110478;1250;33274;-34
2022/09/03 07:19:02;;;;;;;12.70;6.70;;;;;;;;;;110450;1251;33730;-34
2022/09/03 07:21:35;;;;;;;12.00;6.30;;;;;;;;;;110436;1248;34252;-34
2022/09/03 07:24:07;;;;;;;14.20;6.70;;;;;;;;;;110463;1256;33586;-34
2022/09/03 07:26:39;;;;;;;12.40;6.40;;;;;;;;;;110467;1256;35590;-34
2022/09/03 07:29:11;;;;;;;14.40;7.00;;;;;;;;;;110442;1247;33943;-33
2022/09/03 07:31:43;;;;;;;13.20;7.20;;;;;;;;;;110476;1247;35395;-34
2022/09/03 07:34:15;;;;;;;13.20;6.90;;;;;;;;;;110444;1250;35068;-33
2022/09/03 07:36:49;;;;;;;13.40;7.40;;;;;;;;;;110430;1248;33852;-33
2022/09/03 07:39:20;;;;;;;14.10;6.90;;;;;;;;;;110442;1255;34873;-33
2022/09/03 07:41:51;;;;;;;13.60;7.20;;;;;;;;;;110466;1255;35309;-32
2022/09/03 07:44:23;;;;;;;13.10;6.90;;;;;;;;;;110440;1249;35704;-33
2022/09/03 07:46:54;;;;;;;14.30;7.20;;;;;;;;;;110460;1247;34937;-33
2022/09/03 07:49:25;;;;;;;15.70;7.70;;;;;;;;;;110474;1256;35072;-33
2022/09/03 07:51:57;;;;;;;13.50;6.90;;;;;;;;;;110439;1257;34330;-33
2022/09/03 07:54:30;;;;;;;14.80;7.60;;;;;;;;;;110441;1255;34928;-33
2022/09/03 07:57:01;;;;;;;15.80;8.00;;;;;;;;;;110435;1256;35316;-34
2022/09/03 07:59:32;;;;;;;16.80;8.50;;;;;;;;;;110462;1255;34172;-34
2022/09/03 08:02:06;;;;;;;16.50;7.80;;;;;;;;;;110444;1248;34915;-34
2022/09/03 08:04:37;;;;;;;14.50;7.40;;;;;;;;;;110498;1255;34912;-34
2022/09/03 08:07:11;;;;;;;16.80;7.70;;;;;;;;;;110499;1248;35545;-34
2022/09/03 08:09:40;;;;;;;;;;;;;;;;;;110468;1248;35591;-34
2022/09/03 08:12:11;;;;;;;15.70;8.00;;;;;;;;;;110480;1247;35760;-34
2022/09/03 08:14:42;;;;;;;17.40;8.20;;;;;;;;;;110470;1247;33682;-34
2022/09/03 08:17:13;;;;;;;13.70;7.70;;;;;;;;;;110489;1255;34185;-34
2022/09/03 08:19:45;;;;;;;18.80;10.10;;;;;;;;;;110502;1255;35271;-34
2022/09/03 08:22:17;;;;;;;17.00;9.60;;;;;;;;;;110464;1255;35187;-34
2022/09/03 08:24:47;;;;;;;18.00;9.30;;;;;;;;;;110513;1248;34934;-34
2022/09/03 08:27:24;;;;;;;18.00;10.10;;;;;;;;;;110499;1255;34230;-34
2022/09/03 08:29:55;;;;;;;17.20;10.10;;;;;;;;;;110635;1247;33297;-34
2022/09/03 08:32:26;;;;;;;14.90;8.70;;;;;;;;;;110452;1255;34291;-34
2022/09/03 08:34:57;;;;;;;15.50;8.90;;;;;;;;;;110459;1256;33703;-34
2022/09/03 08:37:28;;;;;;;16.30;8.10;;;;;;;;;;110419;1256;33824;-34
2022/09/03 08:39:59;;;;;;;14.30;7.80;;;;;;;;;;110464;1247;33615;-34
2022/09/03 08:42:43;;;;;;;13.00;7.30;;;;;;;;;;110436;1255;34236;-34
2022/09/03 08:45:17;;;;;;;14.60;6.90;;;;;;;;;;110468;1256;34366;-34
2022/09/03 08:47:52;;;;;;;9.80;6.30;;;;;;;;;;110504;1255;35952;-34
2022/09/03 08:50:27;;;;;;;12.00;5.80;;;;;;;;;;110460;1256;33344;-34
2022/09/03 08:53:00;;;;;;;12.40;5.60;;;;;;;;;;110462;1255;34870;-34
2022/09/03 08:55:35;;;;;;;9.80;5.00;;;;;;;;;;110458;1255;34317;-34
2022/09/03 08:58:09;;;;;;;8.70;5.20;;;;;;;;;;110487;1255;35149;-34
2022/09/03 09:01:00;;;;;;;7.50;4.60;;;;;;;;;;110470;1248;33753;-34
2022/09/03 09:03:41;;;;;;;9.30;4.40;;;;;;;;;;110482;1250;35681;-34
2022/09/03 09:06:20;;;;;;;9.30;4.50;;;;;;;;;;110464;1256;35158;-34
2022/09/03 09:09:02;;;;;;;7.70;4.20;;;;;;;;;;110455;1255;34947;-34
2022/09/03 09:11:42;;;;;;;7.50;4.70;;;;;;;;;;110452;1255;33740;-34
2022/09/03 09:14:18;;;;;;;7.40;4.00;;;;;;;;;;110479;1255;34199;-34
2022/09/03 09:16:56;;;;;;;7.90;3.90;;;;;;;;;;110467;1250;34327;-34
2022/09/03 09:19:37;;;;;;;8.00;3.50;;;;;;;;;;110496;1255;33257;-34
2022/09/03 09:22:11;;;;;;;7.00;3.20;;;;;;;;;;110388;1256;34994;-34
2022/09/03 09:24:45;;;;;;;6.00;3.10;;;;;;;;;;110475;1250;34934;-34
2022/09/03 09:27:16;;;;;;;6.30;2.90;;;;;;;;;;110486;1256;35218;-34
2022/09/03 09:29:50;;;;;;;5.90;2.60;;;;;;;;;;110500;1255;35285;-34
2022/09/03 09:32:21;;;;;;;6.40;2.50;;;;;;;;;;110458;1255;33789;-35
2022/09/03 09:34:53;;;;;;;5.70;2.50;;;;;;;;;;110463;1255;34831;-35
2022/09/03 09:37:25;;;;;;;7.20;2.70;;;;;;;;;;110477;1255;35389;-34
2022/09/03 09:39:59;;;;;;;5.20;2.40;;;;;;;;;;110479;1250;33403;-34
2022/09/03 09:42:30;;;;;;;5.90;2.30;;;;;;;;;;110483;1247;34969;-34
2022/09/03 09:45:10;;;;;;;5.20;2.40;;;;;;;;;;110464;1257;35315;-34
2022/09/03 09:47:42;;;;;;;4.40;2.10;;;;;;;;;;110459;1255;35795;-34
2022/09/03 09:50:21;;;;;;;4.50;2.10;;;;;;;;;;110427;1256;35267;-34
2022/09/03 09:53:07;;;;;;;5.20;2.30;;;;;;;;;;110465;1255;33230;-34
2022/09/03 09:55:48;;;;;;;5.00;2.00;;;;;;;;;;110476;1255;34936;-34
2022/09/03 09:58:20;;;;;;;5.70;2.40;;;;;;;;;;110445;1255;33325;-34
2022/09/03 10:01:12;;;;;;;5.10;2.10;;;;;;;;;;110497;1255;34153;-34
2022/09/03 10:03:51;;;;;;;5.70;2.50;;;;;;;;;;110474;1247;35014;-34
2022/09/03 10:09:18;;;;;;;5.50;1.90;;;;;;;;;;110459;1250;34237;-34
2022/09/03 10:11:52;;;;;;;4.60;1.90;;;;;;;;;;110445;1255;33278;-34
2022/09/03 10:14:25;;;;;;;5.00;1.90;;;;;;;;;;110440;1247;35235;-34
2022/09/03 10:17:02;;;;;;;4.70;1.90;;;;;;;;;;110490;1247;33415;-34
2022/09/03 10:19:40;;;;;;;4.30;1.70;;;;;;;;;;110482;1255;33163;-34
2022/09/03 10:22:17;;;;;;;4.30;1.70;;;;;;;;;;110481;1250;34195;-34
2022/09/03 10:24:58;;;;;;;3.60;1.60;;;;;;;;;;110444;1248;34853;-34
2022/09/03 10:27:28;;;;;;;4.80;2.00;;;;;;;;;;110541;1247;34825;-34
2022/09/03 10:29:59;;;;;;;4.30;2.00;;;;;;;;;;110469;1250;34075;-34
2022/09/03 10:32:37;;;;;;;3.90;1.60;;;;;;;;;;110464;1250;35689;-33
2022/09/03 10:35:19;;;;;;;5.00;1.90;;;;;;;;;;110499;1255;35786;-34
2022/09/03 10:37:54;;;;;;;5.00;1.70;;;;;;;;;;110471;1248;35506;-34
2022/09/03 10:40:30;;;;;;;3.80;1.60;;;;;;;;;;110485;1255;35256;-34
2022/09/03 10:43:18;;;;;;;4.30;1.90;;;;;;;;;;110493;1255;35179;-34
2022/09/03 10:46:01;;;;;;;5.00;2.00;;;;;;;;;;110480;1247;33567;-34
2022/09/03 10:48:49;;;;;;;4.10;1.70;;;;;;;;;;110475;1250;33849;-34
2022/09/03 10:51:26;;;;;;;5.50;1.70;;;;;;;;;;110477;1255;35174;-34
2022/09/03 10:54:19;;;;;;;3.90;1.70;;;;;;;;;;110495;1254;33231;-34
2022/09/03 10:56:54;;;;;;;4.50;2.00;;;;;;;;;;110498;1247;34467;-34
2022/09/03 10:59:36;;;;;;;4.10;1.80;;;;;;;;;;110490;1248;34918;-34
2022/09/03 11:02:21;;;;;;;5.90;1.70;;;;;;;;;;110492;1256;34932;-34
2022/09/03 11:04:58;;;;;;;5.10;1.70;;;;;;;;;;110500;1247;33169;-34
2022/09/03 11:07:34;;;;;;;3.30;1.50;;;;;;;;;;110483;1256;35235;-34
2022/09/03 11:10:13;;;;;;;3.80;1.50;;;;;;;;;;110481;1255;35142;-34
2022/09/03 11:12:48;;;;;;;4.50;1.90;;;;;;;;;;110491;1249;35158;-34
2022/09/03 11:15:24;;;;;;;4.00;1.60;;;;;;;;;;110538;1250;34800;-34
2022/09/03 11:18:03;;;;;;;5.50;1.90;;;;;;;;;;110547;1256;33460;-34
2022/09/03 11:20:34;;;;;;;4.60;2.20;;;;;;;;;;110477;1255;34023;-34
2022/09/03 11:23:07;;;;;;;3.90;1.80;;;;;;;;;;110474;1256;34928;-34
2022/09/03 11:25:51;;;;;;;3.90;1.80;;;;;;;;;;110464;1250;34830;-34
2022/09/03 11:28:30;;;;;;;3.60;1.60;;;;;;;;;;110486;1256;35150;-34
2022/09/03 11:31:18;;;;;;;4.30;1.80;;;;;;;;;;110479;1256;35293;-34
2022/09/03 11:34:00;;;;;;;3.80;1.70;;;;;;;;;;110420;1255;34240;-34
2022/09/03 11:36:36;;;;;;;3.70;1.70;;;;;;;;;;110507;1247;35062;-34
2022/09/03 11:39:20;;;;;;;5.20;1.60;;;;;;;;;;110583;1255;34871;-34
2022/09/03 11:42:05;;;;;;;4.60;1.80;;;;;;;;;;110492;1255;33234;-34
2022/09/03 11:44:40;;;;;;;3.10;1.40;;;;;;;;;;110443;1248;35251;-34
2022/09/03 11:47:23;;;;;;;5.00;1.70;;;;;;;;;;110447;1255;33384;-34
2022/09/03 11:50:05;;;;;;;4.40;1.60;;;;;;;;;;110481;1247;33688;-34
2022/09/03 11:52:39;;;;;;;4.50;1.90;;;;;;;;;;110435;1255;35203;-34
2022/09/03 11:55:24;;;;;;;5.20;1.90;;;;;;;;;;110468;1255;35753;-34
2022/09/03 11:57:57;;;;;;;4.20;1.80;;;;;;;;;;110337;1255;33357;-34
2022/09/03 12:00:30;;;;;;;5.10;2.20;;;;;;;;;;110342;1255;34982;-33
2022/09/03 12:03:03;;;;;;;4.20;1.60;;;;;;;;;;110461;1256;34831;-33
2022/09/03 12:05:41;;;;;;;4.20;1.70;;;;;;;;;;110409;1248;35591;-34
2022/09/03 12:08:34;;;;;;;4.70;2.00;;;;;;;;;;110413;1249;35113;-33
2022/09/03 12:11:18;;;;;;;4.50;1.90;;;;;;;;;;110436;1256;35606;-33
2022/09/03 12:14:03;;;;;;;4.00;1.80;;;;;;;;;;110221;1255;35638;-33
2022/09/03 12:16:50;;;;;;;5.00;1.70;;;;;;;;;;110413;1252;34989;-33
2022/09/03 12:19:40;;;;;;;3.40;1.30;;;;;;;;;;110715;1247;32860;-33
2022/09/03 12:22:17;;;;;;;4.20;1.70;;;;;;;;;;110686;1247;33278;-33
2022/09/03 12:24:49;;;;;;;4.30;1.60;;;;;;;;;;110262;1257;33345;-33
2022/09/03 12:27:23;;;;;;;3.60;1.70;;;;;;;;;;110320;1255;35553;-34
2022/09/03 12:30:01;;;;;;;4.30;1.50;;;;;;;;;;110855;1247;34405;-34
2022/09/03 12:32:39;;;;;;;4.20;1.70;;;;;;;;;;110350;1247;33572;-34
2022/09/03 12:35:15;;;;;;;4.90;2.10;;;;;;;;;;110970;1247;34918;-34
2022/09/03 12:37:51;;;;;;;3.90;1.70;;;;;;;;;;110486;1256;34068;-34
2022/09/03 12:40:25;;;;;;;4.60;1.50;;;;;;;;;;110464;1256;34109;-34
2022/09/03 12:43:13;;;;;;;4.40;1.70;;;;;;;;;;110436;1256;33371;-35
2022/09/03 12:45:47;;;;;;;4.30;1.60;;;;;;;;;;110474;1255;35586;-35
2022/09/03 12:48:19;;;;;;;4.10;1.80;;;;;;;;;;110466;1250;35257;-35
2022/09/03 12:51:00;;;;;;;3.60;1.70;;;;;;;;;;110454;1256;35189;-35
2022/09/03 12:53:33;;;;;;;4.10;1.70;;;;;;;;;;110490;1255;35610;-35
2022/09/03 12:56:05;;;;;;;5.10;2.00;;;;;;;;;;110480;1247;35651;-35
2022/09/03 12:58:42;;;;;;;4.10;1.80;;;;;;;;;;110458;1255;34953;-35
2022/09/03 13:01:18;;;;;;;5.40;2.00;;;;;;;;;;110463;1250;33339;-35
2022/09/03 13:03:56;;;;;;;3.80;1.60;;;;;;;;;;110493;1254;33994;-35
2022/09/03 13:06:33;;;;;;;4.20;1.70;;;;;;;;;;110451;1254;33862;-34
2022/09/03 13:09:07;;;;;;;3.30;1.40;;;;;;;;;;110531;1255;34816;-34
2022/09/03 13:11:38;;;;;;;3.50;1.70;;;;;;;;;;110090;1248;545646;-34
2022/09/03 13:14:12;;;;;;;5.50;2.10;;;;;;;;;;110495;1255;33396;-34
2022/09/03 13:17:11;;;;;;;6.40;2.10;;;;;;;;;;110439;1255;33528;-34
2022/09/03 13:20:07;;;;;;;4.20;2.00;;;;;;;;;;110432;1256;35005;-34
2022/09/03 13:22:56;;;;;;;5.40;1.70;;;;;;;;;;110460;1250;35141;-34
2022/09/03 13:25:34;;;;;;;5.10;2.30;;;;;;;;;;110458;1247;35561;-34
2022/09/03 13:28:16;;;;;;;4.50;2.10;;;;;;;;;;110479;1247;33195;-34
2022/09/03 13:30:54;;;;;;;4.70;2.10;;;;;;;;;;110435;1255;34000;-34
2022/09/03 13:33:28;;;;;;;5.00;1.80;;;;;;;;;;110439;1255;33842;-34
2022/09/03 13:36:04;;;;;;;5.00;1.90;;;;;;;;;;110458;1250;34232;-34
2022/09/03 13:38:39;;;;;;;4.10;1.60;;;;;;;;;;110443;1255;33169;-34
2022/09/03 13:41:19;;;;;;;4.70;1.80;;;;;;;;;;110454;1255;35574;-34
2022/09/03 13:43:53;;;;;;;6.60;2.10;;;;;;;;;;110473;1255;35005;-34
2022/09/03 13:46:28;;;;;;;5.00;1.60;;;;;;;;;;110451;1252;33415;-34
2022/09/03 13:51:59;;;;;;;4.30;1.70;;;;;;;;;;110466;1250;35110;-34
2022/09/03 13:54:33;;;;;;;4.20;1.60;;;;;;;;;;110460;1254;33140;-34
2022/09/03 13:57:08;;;;;;;5.30;1.90;;;;;;;;;;110466;1255;34254;-34
2022/09/03 13:59:46;;;;;;;6.10;1.80;;;;;;;;;;110458;1255;34873;-34
2022/09/03 14:02:27;;;;;;;4.90;1.60;;;;;;;;;;110430;1250;34928;-35
2022/09/03 14:05:06;;;;;;;5.90;1.80;;;;;;;;;;110434;1255;35627;-34
2022/09/03 14:08:07;;;;;;;6.20;1.80;;;;;;;;;;110440;1247;35076;-34
2022/09/03 14:10:59;;;;;;;4.30;1.60;;;;;;;;;;110455;1255;33166;-34
2022/09/03 14:13:56;;;;;;;4.90;1.40;;;;;;;;;;110435;1248;35718;-34
2022/09/03 14:16:35;;;;;;;5.50;1.90;;;;;;;;;;110438;1255;34136;-34
2022/09/03 14:19:11;;;;;;;5.10;1.60;;;;;;;;;;110459;1247;33872;-34
2022/09/03 14:21:45;;;;;;;3.90;1.30;;;;;;;;;;110447;1250;34912;-35
2022/09/03 14:24:21;;;;;;;4.80;1.60;;;;;;;;;;110444;1255;34889;-34
2022/09/03 14:26:55;;;;;;;4.40;1.50;;;;;;;;;;110459;1255;34808;-34
2022/09/03 14:29:28;;;;;;;4.40;1.70;;;;;;;;;;110366;1248;34656;-34
2022/09/03 14:32:24;;;;;;;3.40;1.50;;;;;;;;;;110466;1255;35037;-34
2022/09/03 14:35:05;;;;;;;2.60;1.30;;;;;;;;;;110433;1248;33364;-34
2022/09/03 14:37:54;;;;;;;2.80;1.30;;;;;;;;;;110445;1255;34790;-34
2022/09/03 14:40:29;;;;;;;2.80;1.30;;;;;;;;;;110478;1248;33624;-34
2022/09/03 14:43:13;;;;;;;4.00;1.40;;;;;;;;;;110430;1248;35082;-34
2022/09/03 14:46:14;;;;;;;3.80;1.50;;;;;;;;;;110464;1255;34252;-33
2022/09/03 14:49:15;;;;;;;3.80;1.30;;;;;;;;;;110296;1253;35732;-33
2022/09/03 14:51:55;;;;;;;4.10;1.50;;;;;;;;;;110441;1255;35203;-33
2022/09/03 14:54:51;;;;;;;4.10;1.50;;;;;;;;;;110440;1256;35129;-33
2022/09/03 14:57:53;;;;;;;3.50;1.30;;;;;;;;;;110471;1247;34051;-33
2022/09/03 15:00:31;;;;;;;4.20;1.40;;;;;;;;;;110440;1249;33705;-33
2022/09/03 15:03:46;;;;;;;3.90;1.50;;;;;;;;;;110447;1250;35063;-33
2022/09/03 15:06:25;;;;;;;3.00;1.30;;;;;;;;;;110246;1256;35328;-34
2022/09/03 15:09:09;;;;;;;3.80;1.40;;;;;;;;;;110473;1255;35062;-34
2022/09/03 15:11:47;;;;;;;4.20;1.40;;;;;;;;;;110437;1256;33930;-34
2022/09/03 15:14:24;;;;;;;2.80;1.20;;;;;;;;;;110479;1256;35141;-34
2022/09/03 15:17:00;;;;;;;2.80;1.20;;;;;;;;;;110445;1255;34278;-34
2022/09/03 15:19:45;;;;;;;2.80;1.20;;;;;;;;;;110463;1247;34995;-34
2022/09/03 15:22:27;;;;;;;3.60;1.30;;;;;;;;;;110485;1255;34348;-34
2022/09/03 15:25:04;;;;;;;3.30;1.20;;;;;;;;;;110455;1247;33413;-34